sensor_id;sensor_type;location;lat;lon;timestamp;pressure;altitude;pressure_sealevel;temperature;humidity
42111;BME280;27766;52.174;5.456;2023-04-20T00:01:43;102360.03;;;7.12;47.65
42111;BME280;27766;52.174;5.456;2023-04-20T00:04:10;102358.25;;;6.96;48.22
42111;BME280;27766;52.174;5.456;2023-04-20T00:06:37;102355.06;;;7.01;49.00
42111;BME280;27766;52.174;5.456;2023-04-20T00:09:04;102354.09;;;6.99;49.08
42111;BME280;27766;52.174;5.456;2023-04-20T00:11:31;102347.81;;;6.93;49.69
42111;BME280;27766;52.174;5.456;2023-04-20T00:13:58;102338.03;;;6.88;50.29
42111;BME280;27766;52.174;5.456;2023-04-20T00:16:26;102333.59;;;6.85;50.97
42111;BME280;27766;52.174;5.456;2023-04-20T00:18:53;102330.06;;;6.83;51.43
42111;BME280;27766;52.174;5.456;2023-04-20T00:21:20;102317.44;;;6.73;52.43
42111;BME280;27766;52.174;5.456;2023-04-20T00:23:50;102326.16;;;6.75;52.98
42111;BME280;27766;52.174;5.456;2023-04-20T00:26:18;102320.72;;;6.70;53.63
42111;BME280;27766;52.174;5.456;2023-04-20T00:28:45;102315.50;;;6.69;54.25
42111;BME280;27766;52.174;5.456;2023-04-20T00:31:12;102311.16;;;6.68;54.73
42111;BME280;27766;52.174;5.456;2023-04-20T00:33:39;102299.00;;;6.65;55.90
42111;BME280;27766;52.174;5.456;2023-04-20T00:36:07;102286.47;;;6.56;57.02
42111;BME280;27766;52.174;5.456;2023-04-20T00:38:34;102286.41;;;6.55;58.87
42111;BME280;27766;52.174;5.456;2023-04-20T00:41:01;102282.84;;;6.53;60.38
42111;BME280;27766;52.174;5.456;2023-04-20T00:43:29;102290.47;;;6.51;62.35
42111;BME280;27766;52.174;5.456;2023-04-20T00:45:56;102269.28;;;6.55;63.47
42111;BME280;27766;52.174;5.456;2023-04-20T00:48:23;102270.78;;;6.52;67.50
42111;BME280;27766;52.174;5.456;2023-04-20T00:50:51;102260.41;;;6.50;72.65
42111;BME280;27766;52.174;5.456;2023-04-20T00:53:18;102253.22;;;6.44;74.82
42111;BME280;27766;52.174;5.456;2023-04-20T00:55:46;102256.25;;;6.52;75.97
42111;BME280;27766;52.174;5.456;2023-04-20T00:58:13;102252.69;;;6.50;79.26
42111;BME280;27766;52.174;5.456;2023-04-20T01:00:40;102242.31;;;6.48;80.65
42111;BME280;27766;52.174;5.456;2023-04-20T01:03:07;102244.19;;;6.51;82.13
42111;BME280;27766;52.174;5.456;2023-04-20T01:05:35;102238.41;;;6.55;82.82
42111;BME280;27766;52.174;5.456;2023-04-20T01:08:02;102225.72;;;6.58;82.72
42111;BME280;27766;52.174;5.456;2023-04-20T01:10:29;102229.09;;;6.57;84.28
42111;BME280;27766;52.174;5.456;2023-04-20T01:12:56;102226.25;;;6.68;85.46
42111;BME280;27766;52.174;5.456;2023-04-20T01:15:23;102217.88;;;6.72;85.18
42111;BME280;27766;52.174;5.456;2023-04-20T01:17:50;102213.47;;;6.69;86.03
42111;BME280;27766;52.174;5.456;2023-04-20T01:20:18;102218.25;;;6.78;87.00
42111;BME280;27766;52.174;5.456;2023-04-20T01:22:47;102213.97;;;6.78;88.42
42111;BME280;27766;52.174;5.456;2023-04-20T01:25:15;102201.38;;;6.83;87.66
42111;BME280;27766;52.174;5.456;2023-04-20T01:27:43;102203.88;;;6.81;88.69
42111;BME280;27766;52.174;5.456;2023-04-20T01:30:11;102205.72;;;6.84;88.51
42111;BME280;27766;52.174;5.456;2023-04-20T01:32:38;102188.72;;;6.71;91.06
42111;BME280;27766;52.174;5.456;2023-04-20T01:35:07;102187.97;;;6.74;91.58
42111;BME280;27766;52.174;5.456;2023-04-20T01:37:34;102198.34;;;6.75;93.55
42111;BME280;27766;52.174;5.456;2023-04-20T01:40:02;102174.72;;;6.66;95.64
42111;BME280;27766;52.174;5.456;2023-04-20T01:42:30;102180.06;;;6.71;98.03
42111;BME280;27766;52.174;5.456;2023-04-20T01:44:57;102183.31;;;6.67;100.00
42111;BME280;27766;52.174;5.456;2023-04-20T01:47:24;102178.16;;;6.67;100.00
42111;BME280;27766;52.174;5.456;2023-04-20T01:49:52;102175.66;;;6.68;100.00
42111;BME280;27766;52.174;5.456;2023-04-20T01:52:19;102172.81;;;6.63;100.00
42111;BME280;27766;52.174;5.456;2023-04-20T01:54:46;102169.56;;;6.66;100.00
42111;BME280;27766;52.174;5.456;2023-04-20T01:57:13;102159.09;;;6.63;100.00
42111;BME280;27766;52.174;5.456;2023-04-20T01:59:40;102165.38;;;6.68;100.00
42111;BME280;27766;52.174;5.456;2023-04-20T02:02:07;102167.13;;;6.69;100.00
42111;BME280;27766;52.174;5.456;2023-04-20T02:04:35;102164.44;;;6.82;100.00
42111;BME280;27766;52.174;5.456;2023-04-20T02:07:02;102150.88;;;6.85;100.00
42111;BME280;27766;52.174;5.456;2023-04-20T02:09:29;102150.53;;;6.95;100.00
42111;BME280;27766;52.174;5.456;2023-04-20T02:11:56;102144.13;;;7.04;100.00
42111;BME280;27766;52.174;5.456;2023-04-20T02:14:23;102137.88;;;7.15;100.00
42111;BME280;27766;52.174;5.456;2023-04-20T02:16:50;102140.81;;;7.23;100.00
42111;BME280;27766;52.174;5.456;2023-04-20T02:19:19;102131.56;;;7.26;100.00
42111;BME280;27766;52.174;5.456;2023-04-20T02:21:47;102127.56;;;7.32;100.00
42111;BME280;27766;52.174;5.456;2023-04-20T02:24:14;102115.88;;;7.38;100.00
42111;BME280;27766;52.174;5.456;2023-04-20T02:26:41;102118.44;;;7.38;100.00
42111;BME280;27766;52.174;5.456;2023-04-20T02:29:08;102121.19;;;7.41;100.00
42111;BME280;27766;52.174;5.456;2023-04-20T02:31:35;102114.91;;;7.36;100.00
42111;BME280;27766;52.174;5.456;2023-04-20T02:34:02;102103.91;;;7.39;100.00
42111;BME280;27766;52.174;5.456;2023-04-20T02:36:32;102100.41;;;7.38;100.00
42111;BME280;27766;52.174;5.456;2023-04-20T02:38:59;102096.88;;;7.36;100.00
42111;BME280;27766;52.174;5.456;2023-04-20T02:41:26;102092.75;;;7.40;100.00
42111;BME280;27766;52.174;5.456;2023-04-20T02:43:53;102096.47;;;7.45;100.00
42111;BME280;27766;52.174;5.456;2023-04-20T02:46:20;102081.75;;;7.42;100.00
42111;BME280;27766;52.174;5.456;2023-04-20T02:48:47;102073.13;;;7.42;100.00
42111;BME280;27766;52.174;5.456;2023-04-20T02:51:14;102079.53;;;7.50;100.00
42111;BME280;27766;52.174;5.456;2023-04-20T02:53:41;102078.81;;;7.53;100.00
42111;BME280;27766;52.174;5.456;2023-04-20T02:56:08;102084.53;;;7.47;100.00
42111;BME280;27766;52.174;5.456;2023-04-20T02:58:35;102082.19;;;7.52;100.00
42111;BME280;27766;52.174;5.456;2023-04-20T03:01:03;102083.31;;;7.57;100.00
42111;BME280;27766;52.174;5.456;2023-04-20T03:03:30;102075.66;;;7.58;100.00
42111;BME280;27766;52.174;5.456;2023-04-20T03:05:57;102073.38;;;7.65;100.00
42111;BME280;27766;52.174;5.456;2023-04-20T03:08:24;102073.69;;;7.71;100.00
42111;BME280;27766;52.174;5.456;2023-04-20T03:10:52;102063.53;;;7.74;100.00
42111;BME280;27766;52.174;5.456;2023-04-20T03:13:20;102067.22;;;7.79;100.00
42111;BME280;27766;52.174;5.456;2023-04-20T03:15:47;102058.75;;;7.82;100.00
42111;BME280;27766;52.174;5.456;2023-04-20T03:18:14;102062.53;;;7.88;100.00
42111;BME280;27766;52.174;5.456;2023-04-20T03:20:41;102049.78;;;7.91;100.00
42111;BME280;27766;52.174;5.456;2023-04-20T03:23:08;102049.84;;;7.93;100.00
42111;BME280;27766;52.174;5.456;2023-04-20T03:25:36;102051.41;;;8.07;100.00
42111;BME280;27766;52.174;5.456;2023-04-20T03:28:03;102052.31;;;8.08;100.00
42111;BME280;27766;52.174;5.456;2023-04-20T03:30:31;102047.13;;;8.08;100.00
42111;BME280;27766;52.174;5.456;2023-04-20T03:32:58;102058.47;;;8.12;100.00
42111;BME280;27766;52.174;5.456;2023-04-20T03:35:25;102053.22;;;8.10;100.00
42111;BME280;27766;52.174;5.456;2023-04-20T03:37:52;102055.06;;;8.13;100.00
42111;BME280;27766;52.174;5.456;2023-04-20T03:40:19;102050.00;;;8.14;100.00
42111;BME280;27766;52.174;5.456;2023-04-20T03:42:47;102043.81;;;8.11;100.00
42111;BME280;27766;52.174;5.456;2023-04-20T03:45:14;102041.31;;;8.12;100.00
42111;BME280;27766;52.174;5.456;2023-04-20T03:47:41;102033.28;;;8.06;100.00
42111;BME280;27766;52.174;5.456;2023-04-20T03:50:08;102036.22;;;8.14;100.00
42111;BME280;27766;52.174;5.456;2023-04-20T03:52:35;102039.91;;;8.19;100.00
42111;BME280;27766;52.174;5.456;2023-04-20T03:55:03;102040.63;;;8.16;100.00
42111;BME280;27766;52.174;5.456;2023-04-20T03:57:31;102031.44;;;8.21;100.00
42111;BME280;27766;52.174;5.456;2023-04-20T03:59:58;102025.53;;;8.24;100.00
42111;BME280;27766;52.174;5.456;2023-04-20T04:02:26;102012.56;;;8.22;100.00
42111;BME280;27766;52.174;5.456;2023-04-20T04:04:53;102012.84;;;8.29;100.00
42111;BME280;27766;52.174;5.456;2023-04-20T04:07:20;102016.16;;;8.26;100.00
42111;BME280;27766;52.174;5.456;2023-04-20T04:09:48;102003.28;;;8.26;100.00
42111;BME280;27766;52.174;5.456;2023-04-20T04:12:16;102003.19;;;8.24;100.00
42111;BME280;27766;52.174;5.456;2023-04-20T04:14:44;102002.38;;;8.26;100.00
42111;BME280;27766;52.174;5.456;2023-04-20T04:17:12;102001.44;;;8.23;100.00
42111;BME280;27766;52.174;5.456;2023-04-20T04:19:40;101994.63;;;8.26;100.00
42111;BME280;27766;52.174;5.456;2023-04-20T04:22:07;101996.13;;;8.20;100.00
42111;BME280;27766;52.174;5.456;2023-04-20T04:24:34;101994.50;;;8.22;100.00
42111;BME280;27766;52.174;5.456;2023-04-20T04:27:03;101983.38;;;8.23;100.00
42111;BME280;27766;52.174;5.456;2023-04-20T04:29:31;101978.00;;;8.19;100.00
42111;BME280;27766;52.174;5.456;2023-04-20T04:32:02;101973.56;;;8.16;100.00
42111;BME280;27766;52.174;5.456;2023-04-20T04:34:33;101984.03;;;8.19;100.00
42111;BME280;27766;52.174;5.456;2023-04-20T04:37:00;101981.25;;;8.15;100.00
42111;BME280;27766;52.174;5.456;2023-04-20T04:39:28;101974.25;;;8.12;100.00
42111;BME280;27766;52.174;5.456;2023-04-20T04:41:55;101974.25;;;8.12;100.00
42111;BME280;27766;52.174;5.456;2023-04-20T04:44:23;101970.88;;;8.13;100.00
42111;BME280;27766;52.174;5.456;2023-04-20T04:46:52;101968.63;;;8.21;100.00
42111;BME280;27766;52.174;5.456;2023-04-20T04:49:19;101969.53;;;8.21;100.00
42111;BME280;27766;52.174;5.456;2023-04-20T04:51:48;101965.13;;;8.19;100.00
42111;BME280;27766;52.174;5.456;2023-04-20T04:54:15;101969.00;;;8.29;100.00
42111;BME280;27766;52.174;5.456;2023-04-20T04:56:42;101962.44;;;8.17;100.00
42111;BME280;27766;52.174;5.456;2023-04-20T04:59:09;101985.00;;;8.21;100.00
42111;BME280;27766;52.174;5.456;2023-04-20T05:01:36;101975.34;;;8.17;100.00
42111;BME280;27766;52.174;5.456;2023-04-20T05:04:04;101979.03;;;8.22;100.00
42111;BME280;27766;52.174;5.456;2023-04-20T05:06:31;101981.41;;;8.18;100.00
42111;BME280;27766;52.174;5.456;2023-04-20T05:08:58;101971.81;;;8.15;100.00
42111;BME280;27766;52.174;5.456;2023-04-20T05:11:26;101965.56;;;8.10;100.00
42111;BME280;27766;52.174;5.456;2023-04-20T05:13:53;101963.66;;;8.06;100.00
42111;BME280;27766;52.174;5.456;2023-04-20T05:16:20;101967.25;;;8.10;100.00
42111;BME280;27766;52.174;5.456;2023-04-20T05:18:48;101966.25;;;8.06;100.00
42111;BME280;27766;52.174;5.456;2023-04-20T05:21:15;101965.56;;;8.10;100.00
42111;BME280;27766;52.174;5.456;2023-04-20T05:23:43;101976.03;;;8.13;100.00
42111;BME280;27766;52.174;5.456;2023-04-20T05:26:10;101975.28;;;8.16;100.00
42111;BME280;27766;52.174;5.456;2023-04-20T05:28:37;101960.50;;;8.12;100.00
42111;BME280;27766;52.174;5.456;2023-04-20T05:31:04;101968.34;;;8.15;100.00
42111;BME280;27766;52.174;5.456;2023-04-20T05:33:32;101968.13;;;8.10;100.00
42111;BME280;27766;52.174;5.456;2023-04-20T05:35:59;101967.25;;;8.10;100.00
42111;BME280;27766;52.174;5.456;2023-04-20T05:38:26;101961.88;;;8.05;100.00
42111;BME280;27766;52.174;5.456;2023-04-20T05:40:54;101959.25;;;8.03;100.00
42111;BME280;27766;52.174;5.456;2023-04-20T05:43:22;101970.59;;;8.07;100.00
42111;BME280;27766;52.174;5.456;2023-04-20T05:45:49;101958.63;;;8.09;100.00
42111;BME280;27766;52.174;5.456;2023-04-20T05:48:16;101961.28;;;8.11;100.00
42111;BME280;27766;52.174;5.456;2023-04-20T05:50:43;101964.63;;;8.08;100.00
42111;BME280;27766;52.174;5.456;2023-04-20T05:53:10;101971.72;;;8.14;100.00
42111;BME280;27766;52.174;5.456;2023-04-20T05:55:37;101970.13;;;8.16;100.00
42111;BME280;27766;52.174;5.456;2023-04-20T05:58:07;101969.53;;;8.21;100.00
42111;BME280;27766;52.174;5.456;2023-04-20T06:00:34;101969.53;;;8.21;100.00
42111;BME280;27766;52.174;5.456;2023-04-20T06:03:02;101970.59;;;8.27;100.00
42111;BME280;27766;52.174;5.456;2023-04-20T06:05:30;101962.47;;;8.37;100.00
42111;BME280;27766;52.174;5.456;2023-04-20T06:07:57;101962.34;;;8.34;100.00
42111;BME280;27766;52.174;5.456;2023-04-20T06:10:24;101952.16;;;8.37;100.00
42111;BME280;27766;52.174;5.456;2023-04-20T06:12:52;101953.63;;;8.32;100.00
42111;BME280;27766;52.174;5.456;2023-04-20T06:15:19;101946.53;;;8.26;100.00
42111;BME280;27766;52.174;5.456;2023-04-20T06:17:47;101950.94;;;8.29;100.00
42111;BME280;27766;52.174;5.456;2023-04-20T06:20:14;101936.22;;;8.26;100.00
42111;BME280;27766;52.174;5.456;2023-04-20T06:22:42;101942.19;;;8.25;100.00
42111;BME280;27766;52.174;5.456;2023-04-20T06:25:13;101940.03;;;8.16;100.00
42111;BME280;27766;52.174;5.456;2023-04-20T06:27:41;101954.91;;;8.22;100.00
42111;BME280;27766;52.174;5.456;2023-04-20T06:30:09;101941.69;;;8.14;100.00
42111;BME280;27766;52.174;5.456;2023-04-20T06:32:37;101952.81;;;8.13;100.00
42111;BME280;27766;52.174;5.456;2023-04-20T06:35:05;101945.88;;;8.12;100.00
42111;BME280;27766;52.174;5.456;2023-04-20T06:37:34;101943.47;;;7.97;100.00
42111;BME280;27766;52.174;5.456;2023-04-20T06:40:02;101940.56;;;7.89;100.00
42111;BME280;27766;52.174;5.456;2023-04-20T06:42:34;101933.94;;;7.76;100.00
42111;BME280;27766;52.174;5.456;2023-04-20T06:45:01;101939.78;;;7.72;100.00
42111;BME280;27766;52.174;5.456;2023-04-20T06:47:29;101931.13;;;7.72;100.00
42111;BME280;27766;52.174;5.456;2023-04-20T06:50:00;101935.13;;;7.65;100.00
42111;BME280;27766;52.174;5.456;2023-04-20T06:52:28;101938.06;;;7.55;100.00
42111;BME280;27766;52.174;5.456;2023-04-20T06:54:57;101946.16;;;7.44;100.00
42111;BME280;27766;52.174;5.456;2023-04-20T06:57:25;101941.44;;;7.36;100.00
42111;BME280;27766;52.174;5.456;2023-04-20T06:59:52;101957.25;;;7.43;100.00
42111;BME280;27766;52.174;5.456;2023-04-20T07:02:19;101961.38;;;7.40;100.00
42111;BME280;27766;52.174;5.456;2023-04-20T07:04:47;101956.09;;;7.19;100.00
42111;BME280;27766;52.174;5.456;2023-04-20T07:07:14;101958.88;;;7.23;100.00
42111;BME280;27766;52.174;5.456;2023-04-20T07:09:43;101950.84;;;7.17;100.00
42111;BME280;27766;52.174;5.456;2023-04-20T07:12:10;101952.91;;;7.24;100.00
42111;BME280;27766;52.174;5.456;2023-04-20T07:14:41;101950.56;;;7.29;100.00
42111;BME280;27766;52.174;5.456;2023-04-20T07:17:09;101955.41;;;7.23;100.00
42111;BME280;27766;52.174;5.456;2023-04-20T07:19:36;101954.69;;;7.25;100.00
42111;BME280;27766;52.174;5.456;2023-04-20T07:22:03;101950.66;;;7.31;100.00
42111;BME280;27766;52.174;5.456;2023-04-20T07:24:30;101948.88;;;7.11;100.00
42111;BME280;27766;52.174;5.456;2023-04-20T07:26:57;101947.63;;;7.21;100.00
42111;BME280;27766;52.174;5.456;2023-04-20T07:29:24;101957.22;;;7.07;100.00
42111;BME280;27766;52.174;5.456;2023-04-20T07:31:52;101957.47;;;7.12;100.00
42111;BME280;27766;52.174;5.456;2023-04-20T07:34:19;101961.91;;;6.98;100.00
42111;BME280;27766;52.174;5.456;2023-04-20T07:36:47;101955.16;;;7.00;100.00
42111;BME280;27766;52.174;5.456;2023-04-20T07:39:14;101955.09;;;6.99;100.00
42111;BME280;27766;52.174;5.456;2023-04-20T07:41:42;101959.78;;;7.07;100.00
42111;BME280;27766;52.174;5.456;2023-04-20T07:44:11;101956.69;;;6.96;100.00
42111;BME280;27766;52.174;5.456;2023-04-20T07:46:39;101954.84;;;6.94;100.00
42111;BME280;27766;52.174;5.456;2023-04-20T07:49:06;101962.31;;;6.89;100.00
42111;BME280;27766;52.174;5.456;2023-04-20T07:51:33;101956.22;;;6.87;100.00
42111;BME280;27766;52.174;5.456;2023-04-20T07:54:01;101948.91;;;6.78;100.00
42111;BME280;27766;52.174;5.456;2023-04-20T07:56:29;101942.97;;;6.79;100.00
42111;BME280;27766;52.174;5.456;2023-04-20T07:58:56;101961.28;;;6.86;100.00
42111;BME280;27766;52.174;5.456;2023-04-20T08:01:23;101959.69;;;6.88;100.00
42111;BME280;27766;52.174;5.456;2023-04-20T08:03:52;101963.28;;;6.91;100.00
42111;BME280;27766;52.174;5.456;2023-04-20T08:06:22;101957.59;;;6.97;100.00
42111;BME280;27766;52.174;5.456;2023-04-20T08:08:49;101947.91;;;7.09;100.00
42111;BME280;27766;52.174;5.456;2023-04-20T08:11:17;101938.47;;;7.10;100.00
42111;BME280;27766;52.174;5.456;2023-04-20T08:13:44;101934.34;;;7.13;100.00
42111;BME280;27766;52.174;5.456;2023-04-20T08:16:14;101945.13;;;7.23;100.00
42111;BME280;27766;52.174;5.456;2023-04-20T08:18:42;101946.31;;;7.29;100.00
42111;BME280;27766;52.174;5.456;2023-04-20T08:21:09;101940.50;;;7.34;100.00
42111;BME280;27766;52.174;5.456;2023-04-20T08:23:36;101938.19;;;7.40;100.00
42111;BME280;27766;52.174;5.456;2023-04-20T08:26:03;101932.31;;;7.24;100.00
42111;BME280;27766;52.174;5.456;2023-04-20T08:28:31;101922.56;;;7.35;100.00
42111;BME280;27766;52.174;5.456;2023-04-20T08:31:00;101926.06;;;7.55;100.00
42111;BME280;27766;52.174;5.456;2023-04-20T08:33:27;101917.75;;;7.61;100.00
42111;BME280;27766;52.174;5.456;2023-04-20T08:35:54;101929.22;;;7.86;100.00
42111;BME280;27766;52.174;5.456;2023-04-20T08:38:22;101924.44;;;8.13;100.00
42111;BME280;27766;52.174;5.456;2023-04-20T08:41:00;101910.22;;;8.21;100.00
42111;BME280;27766;52.174;5.456;2023-04-20T08:43:28;101926.63;;;8.23;100.00
42111;BME280;27766;52.174;5.456;2023-04-20T08:45:59;101928.84;;;8.16;100.00
42111;BME280;27766;52.174;5.456;2023-04-20T08:48:36;101925.63;;;8.02;100.00
42111;BME280;27766;52.174;5.456;2023-04-20T08:51:04;101919.00;;;7.69;100.00
42111;BME280;27766;52.174;5.456;2023-04-20T08:53:31;101909.88;;;7.76;100.00
42111;BME280;27766;52.174;5.456;2023-04-20T08:55:59;101911.13;;;7.84;100.00
42111;BME280;27766;52.174;5.456;2023-04-20T08:58:30;101907.84;;;7.88;100.00
42111;BME280;27766;52.174;5.456;2023-04-20T09:00:58;101900.81;;;8.04;100.00
42111;BME280;27766;52.174;5.456;2023-04-20T09:03:37;101912.63;;;8.18;100.00
42111;BME280;27766;52.174;5.456;2023-04-20T09:06:12;101913.09;;;8.29;100.00
42111;BME280;27766;52.174;5.456;2023-04-20T09:08:41;101911.16;;;8.23;100.00
42111;BME280;27766;52.174;5.456;2023-04-20T09:11:25;101911.63;;;8.34;100.00
42111;BME280;27766;52.174;5.456;2023-04-20T09:14:00;101906.53;;;8.36;100.00
42111;BME280;27766;52.174;5.456;2023-04-20T09:16:30;101900.31;;;8.50;100.00
42111;BME280;27766;52.174;5.456;2023-04-20T09:18:57;101901.13;;;8.69;100.00
42111;BME280;27766;52.174;5.456;2023-04-20T09:21:25;101906.03;;;8.84;100.00
42111;BME280;27766;52.174;5.456;2023-04-20T09:23:58;101900.75;;;9.02;100.00
42111;BME280;27766;52.174;5.456;2023-04-20T09:26:26;101895.59;;;9.23;100.00
42111;BME280;27766;52.174;5.456;2023-04-20T09:28:53;101886.59;;;9.13;100.00
42111;BME280;27766;52.174;5.456;2023-04-20T09:31:21;101887.78;;;9.22;100.00
42111;BME280;27766;52.174;5.456;2023-04-20T09:34:09;101890.19;;;9.17;100.00
42111;BME280;27766;52.174;5.456;2023-04-20T09:36:44;101888.38;;;9.14;100.00
42111;BME280;27766;52.174;5.456;2023-04-20T09:39:22;101891.56;;;9.09;100.00
42111;BME280;27766;52.174;5.456;2023-04-20T09:41:51;101894.38;;;8.94;100.00
42111;BME280;27766;52.174;5.456;2023-04-20T09:44:19;101881.59;;;8.76;100.00
42111;BME280;27766;52.174;5.456;2023-04-20T09:46:47;101870.75;;;8.63;100.00
42111;BME280;27766;52.174;5.456;2023-04-20T09:49:14;101888.72;;;8.81;100.00
42111;BME280;27766;52.174;5.456;2023-04-20T09:51:42;101892.72;;;8.94;100.00
42111;BME280;27766;52.174;5.456;2023-04-20T09:54:13;101877.19;;;8.73;100.00
42111;BME280;27766;52.174;5.456;2023-04-20T09:56:42;101885.25;;;8.60;100.00
42111;BME280;27766;52.174;5.456;2023-04-20T09:59:10;101869.22;;;8.47;100.00
42111;BME280;27766;52.174;5.456;2023-04-20T10:01:37;101874.38;;;8.47;100.00
42111;BME280;27766;52.174;5.456;2023-04-20T10:04:08;101874.50;;;8.50;100.00
42111;BME280;27766;52.174;5.456;2023-04-20T10:06:51;101865.00;;;8.49;100.00
42111;BME280;27766;52.174;5.456;2023-04-20T10:09:22;101865.06;;;8.51;100.00
42111;BME280;27766;52.174;5.456;2023-04-20T10:12:03;101862.78;;;8.57;100.00
42111;BME280;27766;52.174;5.456;2023-04-20T10:14:30;101857.31;;;8.51;100.00
42111;BME280;27766;52.174;5.456;2023-04-20T10:17:06;101860.25;;;8.59;100.00
42111;BME280;27766;52.174;5.456;2023-04-20T10:19:44;101857.03;;;8.64;100.00
42111;BME280;27766;52.174;5.456;2023-04-20T10:22:25;101864.59;;;8.60;100.00
42111;BME280;27766;52.174;5.456;2023-04-20T10:24:56;101858.25;;;8.73;100.00
42111;BME280;27766;52.174;5.456;2023-04-20T10:27:23;101855.16;;;9.02;100.00
42111;BME280;27766;52.174;5.456;2023-04-20T10:29:50;101848.47;;;9.29;100.00
42111;BME280;27766;52.174;5.456;2023-04-20T10:32:25;101842.75;;;9.38;100.00
42111;BME280;27766;52.174;5.456;2023-04-20T10:35:00;101850.25;;;9.53;100.00
42111;BME280;27766;52.174;5.456;2023-04-20T10:37:28;101841.22;;;9.65;100.00
42111;BME280;27766;52.174;5.456;2023-04-20T10:39:56;101839.53;;;9.66;100.00
42111;BME280;27766;52.174;5.456;2023-04-20T10:42:23;101840.31;;;9.63;100.00
42111;BME280;27766;52.174;5.456;2023-04-20T10:44:53;101838.59;;;9.64;100.00
42111;BME280;27766;52.174;5.456;2023-04-20T10:47:28;101839.31;;;9.60;100.00
42111;BME280;27766;52.174;5.456;2023-04-20T10:50:24;101840.78;;;9.53;100.00
42111;BME280;27766;52.174;5.456;2023-04-20T10:52:52;101836.78;;;9.61;100.00
42111;BME280;27766;52.174;5.456;2023-04-20T10:55:21;101839.22;;;9.58;100.00
42111;BME280;27766;52.174;5.456;2023-04-20T10:57:51;101834.66;;;9.51;100.00
42111;BME280;27766;52.174;5.456;2023-04-20T11:00:21;101831.88;;;9.46;100.00
42111;BME280;27766;52.174;5.456;2023-04-20T11:02:54;101841.66;;;9.54;100.00
42111;BME280;27766;52.174;5.456;2023-04-20T11:05:25;101820.38;;;9.84;100.00
42111;BME280;27766;52.174;5.456;2023-04-20T11:07:55;101803.03;;;10.05;100.00
42111;BME280;27766;52.174;5.456;2023-04-20T11:10:37;101815.25;;;10.34;100.00
42111;BME280;27766;52.174;5.456;2023-04-20T11:13:06;101799.50;;;10.52;100.00
42111;BME280;27766;52.174;5.456;2023-04-20T11:15:33;101801.19;;;10.77;100.00
42111;BME280;27766;52.174;5.456;2023-04-20T11:18:10;101796.31;;;10.86;93.05
42111;BME280;27766;52.174;5.456;2023-04-20T11:20:51;101801.38;;;11.11;95.86
42111;BME280;27766;52.174;5.456;2023-04-20T11:23:23;101799.41;;;11.03;80.92
42111;BME280;27766;52.174;5.456;2023-04-20T11:25:53;101788.22;;;11.04;79.94
42111;BME280;27766;52.174;5.456;2023-04-20T11:28:20;101784.75;;;11.04;79.07
42111;BME280;27766;52.174;5.456;2023-04-20T11:30:49;101770.75;;;10.97;76.27
42111;BME280;27766;52.174;5.456;2023-04-20T11:33:26;101789.06;;;11.03;72.33
42111;BME280;27766;52.174;5.456;2023-04-20T11:35:55;101799.88;;;10.90;78.12
42111;BME280;27766;52.174;5.456;2023-04-20T11:38:40;101797.94;;;10.84;78.71
42111;BME280;27766;52.174;5.456;2023-04-20T11:41:07;101796.16;;;10.56;82.74
42111;BME280;27766;52.174;5.456;2023-04-20T11:43:34;101804.72;;;10.53;85.17
42111;BME280;27766;52.174;5.456;2023-04-20T11:46:02;101796.06;;;10.53;94.83
42111;BME280;27766;52.174;5.456;2023-04-20T11:48:29;101786.84;;;10.61;90.23
42111;BME280;27766;52.174;5.456;2023-04-20T11:50:57;101785.81;;;10.56;89.70
42111;BME280;27766;52.174;5.456;2023-04-20T11:53:24;101798.41;;;10.45;87.57
42111;BME280;27766;52.174;5.456;2023-04-20T11:55:52;101798.13;;;10.63;88.08
42111;BME280;27766;52.174;5.456;2023-04-20T11:58:20;101791.34;;;10.67;83.42
42111;BME280;27766;52.174;5.456;2023-04-20T12:00:47;101790.72;;;10.74;86.20
42111;BME280;27766;52.174;5.456;2023-04-20T12:03:14;101798.03;;;10.60;85.19
42111;BME280;27766;52.174;5.456;2023-04-20T12:05:42;101805.66;;;10.55;84.43
42111;BME280;27766;52.174;5.456;2023-04-20T12:08:09;101799.00;;;10.38;83.58
42111;BME280;27766;52.174;5.456;2023-04-20T12:10:36;101791.00;;;10.32;87.93
42111;BME280;27766;52.174;5.456;2023-04-20T12:13:03;101786.50;;;10.26;88.44
42111;BME280;27766;52.174;5.456;2023-04-20T12:15:31;101785.69;;;10.27;91.74
42111;BME280;27766;52.174;5.456;2023-04-20T12:17:58;101795.28;;;10.31;88.57
42111;BME280;27766;52.174;5.456;2023-04-20T12:20:25;101792.47;;;10.23;87.91
42111;BME280;27766;52.174;5.456;2023-04-20T12:22:52;101788.75;;;10.17;88.27
42111;BME280;27766;52.174;5.456;2023-04-20T12:25:21;101792.91;;;10.11;88.24
42111;BME280;27766;52.174;5.456;2023-04-20T12:27:52;101774.78;;;10.11;87.84
42111;BME280;27766;52.174;5.456;2023-04-20T12:30:19;101774.91;;;10.14;87.78
42111;BME280;27766;52.174;5.456;2023-04-20T12:32:46;101771.75;;;10.23;87.88
42111;BME280;27766;52.174;5.456;2023-04-20T12:35:14;101781.72;;;10.37;88.02
42111;BME280;27766;52.174;5.456;2023-04-20T12:37:41;101775.44;;;10.56;87.52
42111;BME280;27766;52.174;5.456;2023-04-20T12:40:08;101769.75;;;10.66;88.95
42111;BME280;27766;52.174;5.456;2023-04-20T12:42:36;101768.38;;;10.77;88.15
42111;BME280;27766;52.174;5.456;2023-04-20T12:45:03;101767.75;;;10.85;89.96
42111;BME280;27766;52.174;5.456;2023-04-20T12:47:30;101770.09;;;11.04;86.14
42111;BME280;27766;52.174;5.456;2023-04-20T12:49:57;101763.72;;;11.22;82.79
42111;BME280;27766;52.174;5.456;2023-04-20T12:52:24;101773.19;;;11.21;82.92
42111;BME280;27766;52.174;5.456;2023-04-20T12:54:52;101763.72;;;11.22;78.03
42111;BME280;27766;52.174;5.456;2023-04-20T12:57:19;101765.38;;;11.20;79.72